Time;durP1;ratioP1;P1;durP2;ratioP2;P2;SDS_P1;SDS_P2;PMS_P1;PMS_P2;Temp;Humidity;BMP_temperature;BMP_pressure;BME280_temperature;BME280_humidity;BME280_pressure;Samples;Min_cycle;Max_cycle;Signal;HPM_P1;HPM_P2
2022/05/05 00:01:15;;;;;;;11.95;6.03;;;6.90;99.90;;;;;;5098394;28;20047;-75
2022/05/05 00:03:41;;;;;;;10.45;5.90;;;6.90;99.90;;;;;;5115694;28;20042;-76
2022/05/05 00:06:06;;;;;;;9.95;5.95;;;6.90;99.90;;;;;;5098289;28;20372;-76
2022/05/05 00:08:32;;;;;;;10.93;6.15;;;6.90;99.90;;;;;;5115554;28;20035;-76
2022/05/05 00:16:27;;;;;;;9.95;5.78;;;6.90;99.90;;;;;;5133562;28;20372;-76
2022/05/05 00:18:52;;;;;;;10.80;6.50;;;6.90;99.90;;;;;;5098786;28;20398;-76
2022/05/05 00:21:18;;;;;;;12.32;5.78;;;7.00;99.90;;;;;;5132871;28;20043;-76
2022/05/05 00:23:44;;;;;;;12.38;6.57;;;7.00;99.90;;;;;;5098436;28;20051;-76
2022/05/05 00:26:09;;;;;;;10.32;6.32;;;6.90;99.90;;;;;;5080978;28;20062;-76
2022/05/05 00:28:35;;;;;;;10.25;5.70;;;6.90;99.90;;;;;;5115516;28;20075;-76
2022/05/05 00:31:00;;;;;;;13.27;6.20;;;6.90;99.90;;;;;;5133217;28;20050;-76
2022/05/05 00:33:26;;;;;;;8.23;6.07;;;6.90;99.90;;;;;;5101308;27;20057;-76
2022/05/05 00:35:52;;;;;;;8.13;5.63;;;6.90;99.90;;;;;;5119506;27;20035;-75
2022/05/05 00:38:17;;;;;;;9.55;6.45;;;6.90;99.90;;;;;;5118779;27;20360;-76
2022/05/05 00:40:43;;;;;;;11.52;6.45;;;6.80;99.90;;;;;;5137525;27;20107;-76
2022/05/05 00:43:09;;;;;;;9.77;5.78;;;6.90;99.90;;;;;;5101990;27;20047;-76
2022/05/05 00:45:35;;;;;;;8.38;5.93;;;6.90;99.90;;;;;;5102339;27;20046;-76
2022/05/05 00:48:08;;;;;;;10.52;6.32;;;6.90;99.90;;;;;;5137485;27;20505;-76
2022/05/05 00:50:34;;;;;;;10.00;5.72;;;6.90;99.90;;;;;;5119108;27;20093;-76
2022/05/05 00:53:00;;;;;;;9.55;5.78;;;6.90;99.90;;;;;;5102263;27;20144;-76
2022/05/05 00:55:26;;;;;;;9.93;5.65;;;6.80;99.90;;;;;;5118506;27;20103;-76
2022/05/05 00:57:52;;;;;;;9.35;6.40;;;7.00;99.90;;;;;;5084918;27;20125;-76
2022/05/05 01:00:18;;;;;;;8.10;5.85;;;6.90;99.90;;;;;;5101410;27;20039;-76
2022/05/05 01:02:43;;;;;;;10.02;6.15;;;6.90;99.90;;;;;;5085008;27;20418;-76
2022/05/05 01:05:09;;;;;;;11.45;6.45;;;7.00;99.90;;;;;;5118296;27;20047;-76
2022/05/05 01:07:35;;;;;;;9.30;5.95;;;7.00;99.90;;;;;;5101738;27;20447;-76
2022/05/05 01:10:01;;;;;;;10.60;6.13;;;7.00;99.90;;;;;;5118916;27;20556;-77
2022/05/05 01:12:31;;;;;;;10.18;6.13;;;7.10;99.90;;;;;;5136482;27;20051;-75
2022/05/05 01:14:59;;;;;;;10.80;6.15;;;7.00;99.90;;;;;;5137015;27;20171;-76
2022/05/05 01:17:26;;;;;;;9.65;6.10;;;7.10;99.90;;;;;;5084489;27;20087;-75
2022/05/05 01:19:52;;;;;;;11.98;6.18;;;7.10;99.90;;;;;;5118371;27;20047;-76
2022/05/05 01:22:20;;;;;;;9.55;5.90;;;7.10;99.90;;;;;;5118198;27;20057;-76
2022/05/05 01:30:35;;;;;;;11.55;6.53;;;7.10;99.90;;;;;;5052777;28;20088;-76
2022/05/05 01:33:01;;;;;;;13.07;5.82;;;7.10;99.90;;;;;;5085202;27;20090;-76
2022/05/05 01:35:26;;;;;;;11.55;6.10;;;7.20;99.90;;;;;;5117740;27;20054;-76
2022/05/05 01:37:52;;;;;;;11.70;6.25;;;7.20;99.90;;;;;;5117855;27;20043;-76
2022/05/05 01:40:17;;;;;;;10.60;6.18;;;7.20;99.90;;;;;;5117891;27;20055;-76
2022/05/05 01:42:43;;;;;;;9.40;6.22;;;7.20;99.90;;;;;;5118261;27;20130;-76
2022/05/05 01:45:09;;;;;;;11.18;5.88;;;7.20;99.90;;;;;;5117451;27;20043;-76
2022/05/05 01:47:36;;;;;;;9.77;6.28;;;7.30;99.90;;;;;;5100651;27;20104;-76
2022/05/05 01:50:02;;;;;;;10.27;5.75;;;7.30;99.90;;;;;;5136101;27;20051;-77
2022/05/05 01:52:28;;;;;;;10.02;6.05;;;7.30;99.90;;;;;;5100606;27;20063;-76
2022/05/05 01:54:53;;;;;;;9.82;6.10;;;7.30;99.90;;;;;;5084154;27;20386;-75
2022/05/05 01:57:19;;;;;;;11.55;6.53;;;7.30;99.90;;;;;;5117287;27;20039;-76
2022/05/05 01:59:44;;;;;;;11.63;5.80;;;7.30;99.90;;;;;;5118050;27;20394;-75
2022/05/05 02:02:10;;;;;;;12.90;6.05;;;7.30;99.90;;;;;;5136029;27;20039;-75
2022/05/05 02:04:36;;;;;;;9.20;6.05;;;7.30;99.90;;;;;;5100529;27;20047;-75
2022/05/05 02:07:03;;;;;;;10.32;6.32;;;7.30;99.90;;;;;;5117560;27;20039;-76
2022/05/05 02:09:30;;;;;;;12.40;6.57;;;7.30;99.90;;;;;;5117286;27;20045;-76
2022/05/05 02:11:56;;;;;;;12.80;6.47;;;7.30;99.90;;;;;;5117699;27;20043;-76
2022/05/05 02:14:23;;;;;;;14.55;6.43;;;7.30;99.90;;;;;;5100226;27;20039;-76
2022/05/05 02:16:50;;;;;;;10.07;6.60;;;7.30;99.90;;;;;;5117365;27;20039;-76
2022/05/05 02:19:15;;;;;;;10.85;6.65;;;7.20;99.90;;;;;;5083593;27;20058;-75
2022/05/05 02:21:41;;;;;;;8.82;5.97;;;7.20;99.90;;;;;;5135552;27;20043;-76
2022/05/05 02:24:07;;;;;;;8.90;6.38;;;7.20;99.90;;;;;;5117160;27;20047;-76
2022/05/05 02:26:32;;;;;;;10.32;6.53;;;7.10;99.90;;;;;;5135141;27;20132;-75
2022/05/05 02:28:58;;;;;;;8.75;6.50;;;7.10;99.90;;;;;;5099940;27;20047;-76
2022/05/05 02:31:24;;;;;;;12.95;6.50;;;7.10;99.90;;;;;;5116934;27;20050;-75
2022/05/05 02:33:49;;;;;;;8.65;6.95;;;7.00;99.90;;;;;;5135311;27;20125;-75
2022/05/05 02:38:59;;;;;;;9.95;6.65;;;6.90;99.90;;;;;;5135014;27;20540;-76
2022/05/05 02:41:24;;;;;;;8.18;6.47;;;6.90;99.90;;;;;;5082689;27;20047;-76
2022/05/05 02:43:50;;;;;;;10.82;6.78;;;6.80;99.90;;;;;;5116863;27;20119;-75
2022/05/05 02:46:16;;;;;;;9.43;6.45;;;6.80;99.90;;;;;;5100027;27;20078;-75
2022/05/05 02:48:41;;;;;;;10.88;6.43;;;6.80;99.90;;;;;;5134727;27;20186;-76
2022/05/05 02:51:07;;;;;;;11.02;6.72;;;6.80;99.90;;;;;;5116557;27;20039;-76
2022/05/05 02:56:17;;;;;;;11.80;6.70;;;6.80;99.90;;;;;;5115756;27;20440;-75
2022/05/05 02:58:43;;;;;;;13.02;6.70;;;6.80;99.90;;;;;;5115961;27;20055;-75
2022/05/05 03:01:09;;;;;;;9.85;6.18;;;6.80;99.90;;;;;;5116653;27;20043;-76
2022/05/05 03:03:37;;;;;;;10.88;6.10;;;6.80;99.90;;;;;;5116107;27;20171;-76
2022/05/05 03:06:03;;;;;;;14.38;5.97;;;6.80;99.90;;;;;;5116383;27;20043;-76
2022/05/05 03:08:29;;;;;;;14.23;6.82;;;6.70;99.90;;;;;;5134044;27;20096;-76
2022/05/05 03:10:54;;;;;;;11.07;6.40;;;6.70;99.90;;;;;;5116535;27;20047;-76
2022/05/05 03:13:20;;;;;;;10.38;6.40;;;6.70;99.90;;;;;;5134606;27;20039;-75
2022/05/05 03:15:45;;;;;;;11.85;6.43;;;6.80;99.90;;;;;;5098860;27;20043;-75
2022/05/05 03:18:11;;;;;;;12.15;6.97;;;6.70;99.90;;;;;;5134404;27;20059;-75
2022/05/05 03:20:37;;;;;;;13.48;6.78;;;6.60;99.90;;;;;;5134055;27;20398;-76
2022/05/05 03:23:03;;;;;;;7.78;6.38;;;6.60;99.90;;;;;;5099432;27;20046;-76
2022/05/05 03:25:28;;;;;;;11.20;6.70;;;6.60;99.90;;;;;;5115498;27;20152;-75
2022/05/05 03:27:54;;;;;;;10.23;6.25;;;6.60;99.90;;;;;;5134375;27;20047;-75
2022/05/05 03:30:19;;;;;;;8.60;6.53;;;6.60;99.90;;;;;;5115937;27;20048;-76
2022/05/05 03:32:45;;;;;;;10.55;6.82;;;6.50;99.90;;;;;;5133868;27;20057;-75
2022/05/05 03:35:11;;;;;;;13.02;6.25;;;6.50;99.90;;;;;;5115631;27;20487;-76
2022/05/05 03:37:36;;;;;;;10.88;6.95;;;6.50;99.90;;;;;;5098380;27;20043;-76
2022/05/05 03:40:02;;;;;;;11.02;6.55;;;6.50;99.90;;;;;;5082240;27;20092;-76
2022/05/05 03:42:28;;;;;;;10.00;6.00;;;6.50;99.90;;;;;;5133932;27;20383;-76
2022/05/05 03:44:54;;;;;;;13.73;6.50;;;6.40;99.90;;;;;;5098866;27;20035;-75
2022/05/05 03:47:19;;;;;;;8.88;6.45;;;6.40;99.90;;;;;;5098730;27;20051;-75
2022/05/05 03:49:45;;;;;;;9.68;6.60;;;6.40;99.90;;;;;;5133553;27;20047;-75
2022/05/05 03:52:11;;;;;;;13.25;6.88;;;6.40;99.90;;;;;;5133931;27;20039;-76
2022/05/05 03:54:37;;;;;;;12.13;6.53;;;6.40;99.90;;;;;;5115383;27;20047;-76
2022/05/05 03:57:03;;;;;;;14.10;7.00;;;6.40;99.90;;;;;;5115643;27;20047;-76
2022/05/05 03:59:29;;;;;;;11.20;6.32;;;6.40;99.90;;;;;;5133548;27;20071;-79
2022/05/05 04:01:54;;;;;;;10.85;6.88;;;6.40;99.90;;;;;;5115729;27;20043;-76
2022/05/05 04:04:20;;;;;;;9.32;6.80;;;6.40;99.90;;;;;;5115674;27;20043;-76
2022/05/05 04:06:45;;;;;;;10.73;6.70;;;6.40;99.90;;;;;;5114965;27;20054;-76
2022/05/05 04:09:11;;;;;;;9.93;6.45;;;6.40;99.90;;;;;;5133802;27;20047;-75
2022/05/05 04:11:37;;;;;;;9.18;6.70;;;6.40;99.90;;;;;;5115148;28;20043;-76
2022/05/05 04:14:03;;;;;;;9.07;6.50;;;6.40;99.90;;;;;;5115297;28;20100;-76
2022/05/05 04:16:31;;;;;;;9.73;6.22;;;6.40;99.90;;;;;;5098709;28;20043;-75
2022/05/05 04:18:58;;;;;;;9.40;6.22;;;6.40;99.90;;;;;;5115434;28;20138;-75
2022/05/05 04:21:24;;;;;;;11.63;7.00;;;6.40;99.90;;;;;;5098759;28;20047;-76
2022/05/05 04:23:50;;;;;;;10.25;6.80;;;6.40;99.90;;;;;;5097704;28;20051;-75
2022/05/05 04:26:16;;;;;;;11.48;6.72;;;6.40;99.90;;;;;;5098578;28;20083;-75
2022/05/05 04:28:42;;;;;;;8.68;6.57;;;6.50;99.90;;;;;;5114926;28;20075;-76
2022/05/05 04:31:13;;;;;;;10.90;7.32;;;6.50;99.90;;;;;;5133592;28;20047;-75
2022/05/05 04:33:38;;;;;;;9.23;7.22;;;6.60;99.90;;;;;;5081224;28;20101;-75
2022/05/05 04:36:04;;;;;;;16.08;7.18;;;6.60;99.90;;;;;;5098438;28;20556;-75
2022/05/05 04:38:30;;;;;;;11.98;7.72;;;6.70;99.90;;;;;;5133337;28;20127;-75
2022/05/05 04:40:56;;;;;;;12.23;8.02;;;6.70;99.90;;;;;;5132947;28;20081;-76
2022/05/05 04:43:21;;;;;;;12.35;7.95;;;6.70;99.90;;;;;;5115366;28;20105;-75
2022/05/05 04:45:47;;;;;;;11.18;7.40;;;6.80;99.90;;;;;;5114899;28;20057;-76
2022/05/05 04:48:13;;;;;;;13.40;7.57;;;6.80;99.90;;;;;;5133389;28;20042;-76
2022/05/05 04:50:38;;;;;;;15.07;8.45;;;6.90;99.90;;;;;;5132956;28;20383;-76
2022/05/05 04:53:04;;;;;;;9.63;8.20;;;6.80;99.90;;;;;;5133222;28;20479;-76
2022/05/05 04:55:30;;;;;;;11.00;7.80;;;6.90;99.90;;;;;;5115191;28;20435;-75
2022/05/05 04:57:56;;;;;;;11.65;8.13;;;6.90;99.90;;;;;;5133004;28;20606;-76
2022/05/05 05:00:22;;;;;;;10.98;7.40;;;7.00;99.90;;;;;;5115190;28;20039;-75
2022/05/05 05:02:48;;;;;;;12.10;7.45;;;6.80;99.90;;;;;;5114703;28;20054;-76
2022/05/05 05:05:14;;;;;;;10.43;7.45;;;6.90;99.90;;;;;;5098168;28;20047;-76
2022/05/05 05:07:40;;;;;;;14.18;8.23;;;6.90;99.90;;;;;;5114721;28;20505;-76
2022/05/05 05:10:06;;;;;;;13.05;8.30;;;6.90;99.90;;;;;;5133138;28;20080;-75
2022/05/05 05:12:31;;;;;;;10.32;7.75;;;6.90;99.90;;;;;;5115014;28;20389;-76
2022/05/05 05:14:57;;;;;;;15.82;8.30;;;6.90;99.90;;;;;;5097645;28;20043;-76
2022/05/05 05:17:23;;;;;;;12.57;7.78;;;6.90;99.90;;;;;;5114884;28;20039;-75
2022/05/05 05:19:48;;;;;;;12.63;8.18;;;6.90;99.90;;;;;;5116520;27;20046;-76
2022/05/05 05:22:14;;;;;;;11.60;7.85;;;6.90;99.90;;;;;;5118709;27;20161;-76
2022/05/05 05:24:39;;;;;;;13.88;8.27;;;7.00;99.90;;;;;;5101366;27;20051;-79
2022/05/05 05:27:05;;;;;;;12.30;7.88;;;6.80;99.90;;;;;;5118338;27;20501;-76
2022/05/05 05:29:31;;;;;;;12.82;7.80;;;7.00;99.90;;;;;;5136762;27;20050;-76
2022/05/05 05:31:57;;;;;;;11.13;8.02;;;7.00;99.90;;;;;;5136077;27;20506;-76
2022/05/05 05:34:22;;;;;;;10.20;7.60;;;7.00;99.90;;;;;;5118484;27;20103;-76
2022/05/05 05:36:49;;;;;;;12.88;7.95;;;7.10;99.90;;;;;;5136055;27;20043;-76
2022/05/05 05:39:17;;;;;;;12.30;8.02;;;7.10;99.90;;;;;;5136433;27;20129;-76
2022/05/05 05:41:43;;;;;;;11.68;7.85;;;7.10;99.90;;;;;;5100789;27;20051;-76
2022/05/05 05:44:09;;;;;;;11.65;8.05;;;7.10;99.90;;;;;;5118242;27;20382;-76
2022/05/05 05:46:34;;;;;;;10.20;8.18;;;7.30;99.90;;;;;;5136292;27;20471;-76
2022/05/05 05:49:00;;;;;;;11.27;8.38;;;7.40;99.90;;;;;;5135849;27;20162;-76
2022/05/05 05:51:25;;;;;;;14.88;8.77;;;7.50;99.90;;;;;;5101120;27;20135;-76
2022/05/05 05:53:51;;;;;;;9.70;8.07;;;7.60;99.90;;;;;;5083681;27;20050;-76
2022/05/05 05:56:18;;;;;;;12.82;8.93;;;7.70;99.90;;;;;;5101069;27;20039;-76
2022/05/05 05:58:43;;;;;;;17.90;9.00;;;7.80;99.90;;;;;;5100547;27;20043;-76
2022/05/05 06:01:09;;;;;;;15.48;8.77;;;8.00;99.90;;;;;;5117632;27;20051;-76
2022/05/05 06:06:22;;;;;;;12.50;8.35;;;8.30;99.90;;;;;;5120366;27;20047;-75
2022/05/05 06:08:49;;;;;;;13.13;8.25;;;8.40;99.90;;;;;;5083994;27;20125;-76
2022/05/05 06:11:17;;;;;;;11.10;8.52;;;8.50;99.90;;;;;;5117802;27;20051;-75
2022/05/05 06:13:42;;;;;;;11.05;8.63;;;8.70;99.90;;;;;;5084327;27;20418;-76
2022/05/05 06:16:10;;;;;;;15.32;8.93;;;8.70;99.90;;;;;;5116798;27;20126;-76
2022/05/05 06:18:41;;;;;;;13.65;8.50;;;8.90;99.90;;;;;;5117551;27;20043;-76
2022/05/05 06:21:07;;;;;;;14.45;8.70;;;9.00;99.90;;;;;;5135227;27;20058;-76
2022/05/05 06:23:33;;;;;;;15.27;8.32;;;9.10;99.90;;;;;;5117170;27;20479;-76
2022/05/05 06:25:58;;;;;;;12.15;8.43;;;9.20;99.90;;;;;;5116460;27;20478;-76
2022/05/05 06:28:24;;;;;;;12.18;8.68;;;9.30;99.90;;;;;;5100635;27;20124;-76
2022/05/05 06:30:50;;;;;;;10.30;8.23;;;9.40;99.90;;;;;;5099459;27;20054;-76
2022/05/05 06:33:15;;;;;;;13.00;8.18;;;9.50;99.90;;;;;;5117203;27;20051;-76
2022/05/05 06:35:41;;;;;;;14.60;8.10;;;9.70;99.90;;;;;;5117216;27;20043;-76
2022/05/05 06:38:07;;;;;;;15.65;8.63;;;9.70;99.90;;;;;;5116478;27;20079;-76
2022/05/05 06:40:34;;;;;;;14.45;7.95;;;9.80;99.90;;;;;;5116934;27;20054;-76
2022/05/05 06:43:00;;;;;;;13.10;8.35;;;9.90;99.90;;;;;;5116527;27;20054;-76
2022/05/05 06:45:26;;;;;;;13.38;8.23;;;10.10;99.90;;;;;;5135159;27;20407;-76
2022/05/05 06:47:52;;;;;;;17.17;8.13;;;10.20;99.90;;;;;;5116569;27;20043;-76
2022/05/05 06:50:21;;;;;;;14.00;7.80;;;10.30;99.90;;;;;;5116911;27;20043;-76
2022/05/05 06:52:47;;;;;;;12.00;7.63;;;10.40;99.90;;;;;;5100541;27;20051;-76
2022/05/05 06:55:13;;;;;;;13.45;8.13;;;10.50;99.90;;;;;;5134440;27;20422;-76
2022/05/05 06:57:39;;;;;;;14.98;8.02;;;10.60;99.60;;;;;;5134964;27;20134;-76
2022/05/05 07:00:05;;;;;;;12.70;7.38;;;10.70;99.00;;;;;;5116290;27;20126;-76
2022/05/05 07:02:31;;;;;;;14.60;7.47;;;10.80;98.70;;;;;;5099835;27;20046;-76
2022/05/05 07:07:40;;;;;;;10.20;6.50;;;11.00;98.10;;;;;;5116597;27;20536;-76
2022/05/05 07:12:51;;;;;;;16.90;7.43;;;11.20;97.70;;;;;;5119179;27;20054;-76
2022/05/05 07:15:17;;;;;;;14.57;7.30;;;11.30;97.20;;;;;;5081950;27;20118;-76
2022/05/05 07:17:43;;;;;;;14.07;7.88;;;11.40;97.00;;;;;;5116315;27;20108;-76
2022/05/05 07:20:09;;;;;;;12.73;7.30;;;11.50;97.10;;;;;;5115845;27;20047;-76
2022/05/05 07:22:35;;;;;;;12.88;6.82;;;11.60;96.60;;;;;;5082579;27;20051;-76
2022/05/05 07:25:03;;;;;;;11.73;7.15;;;11.70;96.10;;;;;;5081447;27;20047;-76
2022/05/05 07:27:29;;;;;;;12.82;6.95;;;11.80;95.70;;;;;;5099408;27;20046;-76
2022/05/05 07:29:55;;;;;;;12.77;7.10;;;11.90;95.60;;;;;;5116177;27;20053;-76
2022/05/05 07:32:20;;;;;;;12.20;7.20;;;12.00;95.10;;;;;;5098773;27;20122;-76
2022/05/05 07:34:46;;;;;;;14.45;7.28;;;12.10;95.30;;;;;;5134248;27;20125;-76
2022/05/05 07:37:11;;;;;;;12.02;6.93;;;12.20;95.30;;;;;;5115439;27;20079;-76
2022/05/05 07:39:37;;;;;;;12.30;7.63;;;12.20;95.10;;;;;;5134151;27;20039;-76
2022/05/05 07:42:03;;;;;;;12.07;7.35;;;12.30;94.70;;;;;;5114903;27;20039;-77
2022/05/05 07:44:29;;;;;;;12.43;7.10;;;12.30;94.00;;;;;;5116014;27;20074;-76
2022/05/05 07:46:56;;;;;;;13.50;7.55;;;12.40;93.70;;;;;;5134070;27;20526;-76
2022/05/05 07:49:22;;;;;;;11.40;6.90;;;12.50;93.70;;;;;;5115177;27;20054;-75
2022/05/05 07:51:51;;;;;;;19.50;7.20;;;12.60;93.70;;;;;;5133911;27;20042;-76
2022/05/05 07:54:35;;;;;;;11.05;7.13;;;12.60;93.60;;;;;;5133379;27;20051;-76
2022/05/05 07:57:01;;;;;;;15.07;7.80;;;12.70;93.30;;;;;;5117886;27;20039;-77
2022/05/05 07:59:28;;;;;;;13.68;6.97;;;12.80;93.20;;;;;;5115718;27;20421;-76
2022/05/05 08:01:54;;;;;;;11.38;7.35;;;12.90;92.70;;;;;;5115801;27;20039;-76
2022/05/05 08:04:19;;;;;;;13.98;6.70;;;13.00;92.50;;;;;;5133595;27;20285;-76
2022/05/05 08:06:45;;;;;;;9.93;6.22;;;13.10;92.00;;;;;;5115657;28;20047;-76
2022/05/05 08:09:11;;;;;;;11.50;6.50;;;13.20;91.10;;;;;;5098052;27;20031;-76
2022/05/05 08:11:37;;;;;;;11.82;5.85;;;13.30;90.40;;;;;;5081924;27;20043;-76
2022/05/05 08:14:04;;;;;;;11.80;7.20;;;13.30;90.10;;;;;;5115116;28;20126;-77
2022/05/05 08:16:30;;;;;;;12.75;6.90;;;13.40;90.00;;;;;;5082028;28;20054;-76
2022/05/05 08:18:55;;;;;;;11.13;6.68;;;13.50;89.20;;;;;;5081420;28;20257;-76
2022/05/05 08:21:21;;;;;;;15.05;6.65;;;13.50;88.60;;;;;;5081426;28;20047;-76
2022/05/05 08:23:47;;;;;;;11.40;6.90;;;13.50;88.30;;;;;;5133257;28;20126;-76
2022/05/05 08:28:56;;;;;;;11.77;6.35;;;13.50;89.00;;;;;;5101251;28;20094;-76
2022/05/05 08:31:22;;;;;;;27.80;7.05;;;13.60;88.70;;;;;;5097979;28;20081;-76
2022/05/05 08:33:48;;;;;;;13.38;7.00;;;13.60;88.40;;;;;;5115393;28;20043;-76
2022/05/05 08:36:13;;;;;;;15.80;5.97;;;13.70;87.40;;;;;;5114873;28;20043;-76
2022/05/05 08:38:39;;;;;;;10.70;6.47;;;13.70;87.40;;;;;;5115135;28;20051;-76
2022/05/05 08:41:08;;;;;;;13.50;6.35;;;13.80;85.80;;;;;;5098147;28;20039;-80
2022/05/05 08:43:33;;;;;;;12.35;6.55;;;13.80;84.80;;;;;;5081845;28;20390;-77
2022/05/05 08:45:59;;;;;;;12.25;6.65;;;13.80;83.80;;;;;;5133324;28;20122;-76
2022/05/05 08:48:25;;;;;;;12.70;6.60;;;13.90;84.50;;;;;;5098023;28;20133;-76
2022/05/05 08:50:58;;;;;;;13.23;6.13;;;14.00;85.00;;;;;;5098000;28;20054;-75
2022/05/05 08:53:35;;;;;;;11.10;6.47;;;14.20;84.10;;;;;;5116316;27;20053;-76
2022/05/05 08:56:02;;;;;;;9.80;6.13;;;14.40;83.50;;;;;;5119433;27;20051;-79
2022/05/05 08:58:28;;;;;;;12.18;5.90;;;14.50;83.00;;;;;;5101501;27;20047;-76
2022/05/05 09:00:55;;;;;;;10.30;5.63;;;14.60;81.80;;;;;;5118916;27;20043;-76
2022/05/05 09:03:21;;;;;;;9.07;5.65;;;14.70;80.20;;;;;;5118670;27;20108;-75
2022/05/05 09:05:51;;;;;;;8.68;5.97;;;14.80;80.00;;;;;;5101928;27;20388;-76
2022/05/05 09:08:23;;;;;;;13.38;5.68;;;14.90;79.80;;;;;;5101594;27;20136;-76
2022/05/05 09:10:50;;;;;;;12.20;6.10;;;15.00;80.20;;;;;;5118931;27;20051;-76
2022/05/05 09:13:46;;;;;;;12.65;6.47;;;15.10;79.30;;;;;;5118140;27;20054;-76
2022/05/05 09:16:11;;;;;;;10.73;6.13;;;15.20;76.70;;;;;;5100793;27;20058;-77
2022/05/05 09:18:38;;;;;;;11.13;5.75;;;15.20;79.10;;;;;;5084432;27;20047;-76
2022/05/05 09:21:04;;;;;;;10.52;5.68;;;15.30;78.00;;;;;;5136824;27;20053;-77
2022/05/05 09:24:34;;;;;;;10.82;5.40;;;15.30;77.60;;;;;;5136417;27;20046;-76
2022/05/05 09:26:24;;;;;;;8.73;4.95;;;15.40;77.10;;;;;;5103667;27;20142;-76
2022/05/05 09:28:49;;;;;;;8.10;5.57;;;15.50;77.30;;;;;;5118552;27;20043;-76
2022/05/05 09:31:15;;;;;;;8.93;5.70;;;15.60;75.40;;;;;;5118007;27;20051;-76
2022/05/05 09:33:42;;;;;;;8.20;5.68;;;15.70;74.60;;;;;;5084346;27;20126;-76
2022/05/05 09:36:10;;;;;;;7.97;4.97;;;15.70;74.30;;;;;;5136657;27;20463;-76
2022/05/05 09:38:56;;;;;;;6.78;5.20;;;15.80;74.40;;;;;;5117703;27;20103;-76
2022/05/05 09:41:28;;;;;;;9.88;5.75;;;15.90;73.00;;;;;;5136020;27;20042;-76
2022/05/05 09:43:58;;;;;;;8.77;5.57;;;15.90;73.50;;;;;;5118179;27;20179;-76
2022/05/05 09:46:27;;;;;;;7.43;5.13;;;16.00;73.50;;;;;;5117513;27;20399;-76
2022/05/05 09:49:12;;;;;;;9.95;5.38;;;16.00;73.10;;;;;;5118107;27;20126;-76
2022/05/05 09:57:41;;;;;;;8.05;5.15;;;16.20;73.40;;;;;;5106358;27;20047;-76
2022/05/05 10:05:41;;;;;;;7.03;5.13;;;16.30;72.10;;;;;;5119636;27;20051;-76
2022/05/05 10:08:07;;;;;;;8.73;5.57;;;16.40;72.70;;;;;;5084074;27;20055;-76
2022/05/05 10:10:33;;;;;;;8.18;5.03;;;16.50;72.30;;;;;;5117062;27;20050;-76
2022/05/05 10:12:58;;;;;;;7.65;5.32;;;16.60;71.90;;;;;;5117488;27;20126;-76
2022/05/05 10:15:24;;;;;;;11.15;5.22;;;16.70;72.30;;;;;;5100103;27;20540;-76
2022/05/05 10:17:50;;;;;;;6.97;5.20;;;16.80;70.30;;;;;;5083587;27;20495;-76
2022/05/05 10:20:16;;;;;;;6.15;4.78;;;16.90;70.20;;;;;;5135699;27;20078;-76
2022/05/05 10:23:06;;;;;;;5.50;4.60;;;17.00;69.40;;;;;;5099964;27;20395;-76
2022/05/05 10:25:35;;;;;;;5.15;4.07;;;17.20;68.90;;;;;;5116416;27;20059;-76
2022/05/05 10:28:00;;;;;;;6.68;4.10;;;17.20;69.70;;;;;;5100625;27;20502;-76
2022/05/05 10:30:36;;;;;;;4.50;3.90;;;17.30;68.30;;;;;;5099382;27;20043;-76
2022/05/05 10:33:06;;;;;;;6.10;4.10;;;17.40;66.80;;;;;;5116829;27;20459;-78
2022/05/05 10:35:42;;;;;;;6.82;4.95;;;17.40;67.30;;;;;;5134840;27;20047;-76
2022/05/05 10:38:40;;;;;;;7.95;4.40;;;17.50;66.80;;;;;;5083526;27;20043;-76
2022/05/05 10:41:31;;;;;;;7.28;4.65;;;17.50;66.20;;;;;;5135389;27;20051;-76
2022/05/05 10:44:20;;;;;;;6.03;4.30;;;17.50;65.80;;;;;;5100020;27;20375;-76
2022/05/05 10:47:02;;;;;;;7.35;5.22;;;17.60;66.10;;;;;;5134607;27;20090;-76
2022/05/05 10:49:31;;;;;;;6.60;5.43;;;17.70;66.00;;;;;;5099190;27;20050;-76
2022/05/05 10:52:12;;;;;;;10.63;5.63;;;17.60;65.20;;;;;;5116955;27;20506;-76
2022/05/05 10:54:38;;;;;;;;;;;17.70;65.30;;;;;;5134814;27;20047;-76
2022/05/05 10:57:25;;;;;;;8.27;5.72;;;17.60;66.30;;;;;;5116369;27;19919;-76
2022/05/05 11:00:13;;;;;;;9.40;6.15;;;17.70;65.90;;;;;;5134928;27;20403;-76
2022/05/05 11:03:02;;;;;;;7.65;6.25;;;17.70;66.10;;;;;;5082452;27;20043;-76
2022/05/05 11:05:28;;;;;;;8.55;6.88;;;17.80;65.40;;;;;;5118765;27;20059;-76
2022/05/05 11:08:07;;;;;;;8.40;6.22;;;17.80;65.40;;;;;;5135005;27;20490;-76
2022/05/05 11:11:39;;;;;;;8.20;5.93;;;17.90;65.40;;;;;;5134268;27;20047;-76
2022/05/05 11:13:40;;;;;;;7.13;5.80;;;18.00;65.80;;;;;;5115939;27;20368;-75
2022/05/05 11:22:08;;;;;;;9.38;7.53;;;18.20;64.10;;;;;;5116283;27;20051;-76
2022/05/05 11:24:34;;;;;;;9.23;7.00;;;18.20;63.80;;;;;;5133615;27;20407;-75
2022/05/05 11:27:00;;;;;;;7.72;6.68;;;18.20;63.30;;;;;;5116022;27;20047;-76
2022/05/05 11:29:30;;;;;;;9.52;7.18;;;18.10;63.60;;;;;;5116123;27;20134;-75
2022/05/05 11:32:00;;;;;;;9.77;7.23;;;18.10;63.60;;;;;;5116156;27;20047;-76
2022/05/05 11:34:36;;;;;;;11.73;7.20;;;18.10;63.90;;;;;;5116106;27;20094;-75
2022/05/05 11:37:02;;;;;;;11.05;6.65;;;18.10;63.60;;;;;;5116038;27;20441;-76
2022/05/05 11:39:29;;;;;;;9.45;6.85;;;18.10;65.00;;;;;;5134091;27;20091;-75
2022/05/05 11:42:10;;;;;;;8.52;7.40;;;18.20;65.50;;;;;;5115961;27;20174;-75
2022/05/05 11:44:37;;;;;;;10.07;7.50;;;18.30;63.80;;;;;;5081451;27;20050;-76
2022/05/05 11:47:14;;;;;;;10.20;7.50;;;18.30;64.30;;;;;;5098933;27;20068;-76
2022/05/05 11:49:43;;;;;;;8.88;6.60;;;18.30;64.10;;;;;;5098432;27;20054;-76
2022/05/05 11:52:10;;;;;;;8.15;6.03;;;18.30;64.20;;;;;;5133867;27;20368;-76
2022/05/05 11:54:36;;;;;;;8.13;6.53;;;18.40;64.10;;;;;;5098589;27;20093;-76
2022/05/05 11:57:02;;;;;;;8.23;6.20;;;18.40;64.20;;;;;;5115646;27;20456;-77
2022/05/05 12:02:15;;;;;;;7.22;6.43;;;18.30;62.90;;;;;;5115723;27;20051;-76
2022/05/05 12:04:56;;;;;;;6.32;5.38;;;18.20;62.50;;;;;;5133404;27;20039;-76
2022/05/05 12:07:23;;;;;;;10.10;6.75;;;18.20;62.50;;;;;;5082093;28;20062;-76
2022/05/05 12:10:02;;;;;;;8.38;6.85;;;18.20;63.20;;;;;;5115183;27;20058;-75
2022/05/05 12:12:30;;;;;;;9.65;7.03;;;18.30;62.90;;;;;;5133701;27;20043;-76
2022/05/05 12:15:00;;;;;;;7.13;5.63;;;18.40;62.30;;;;;;5132924;27;20134;-76
2022/05/05 12:17:32;;;;;;;;;;;18.40;61.20;;;;;;5115449;28;20418;-75
2022/05/05 12:20:11;;;;;;;7.40;5.57;;;18.20;59.20;;;;;;5114933;28;19919;-76
2022/05/05 12:22:41;;;;;;;6.65;5.60;;;18.20;62.00;;;;;;5116303;28;20104;-76
2022/05/05 12:25:12;;;;;;;9.77;6.30;;;18.20;62.30;;;;;;5098058;28;20525;-76
2022/05/05 12:27:38;;;;;;;5.88;5.28;;;18.30;60.70;;;;;;5133357;27;20502;-76
2022/05/05 12:30:05;;;;;;;7.70;5.38;;;18.40;60.30;;;;;;5119668;27;20050;-76
2022/05/05 12:32:31;;;;;;;7.93;5.90;;;18.40;59.90;;;;;;5119536;27;20043;-76
2022/05/05 12:35:17;;;;;;;8.02;5.80;;;18.50;59.60;;;;;;5137331;27;20055;-75
2022/05/05 12:37:43;;;;;;;8.82;5.80;;;18.60;59.20;;;;;;5118881;27;20047;-76
2022/05/05 12:40:09;;;;;;;7.70;5.50;;;18.60;59.60;;;;;;5137599;27;20043;-76
2022/05/05 12:42:48;;;;;;;5.93;4.95;;;18.60;59.80;;;;;;5085666;27;20053;-76
2022/05/05 12:45:29;;;;;;;7.40;5.50;;;18.70;59.70;;;;;;5103894;27;20080;-76
2022/05/05 12:47:57;;;;;;;5.95;5.35;;;18.70;59.40;;;;;;5103148;27;20047;-76
2022/05/05 12:50:35;;;;;;;6.88;5.32;;;18.70;59.50;;;;;;5137356;27;20380;-75
2022/05/05 13:01:40;;;;;;;8.60;6.00;;;19.00;59.00;;;;;;5119056;27;20070;-76
2022/05/05 13:04:09;;;;;;;6.95;5.90;;;19.10;59.20;;;;;;5102145;27;20050;-76
2022/05/05 13:06:36;;;;;;;6.72;5.75;;;19.20;58.20;;;;;;5102321;27;20047;-76
2022/05/05 13:09:02;;;;;;;7.65;6.15;;;19.20;57.60;;;;;;5084618;27;20054;-77
2022/05/05 13:11:28;;;;;;;7.82;6.10;;;19.30;57.80;;;;;;5118812;27;20051;-76
2022/05/05 13:13:53;;;;;;;7.32;6.13;;;19.30;57.20;;;;;;5118168;27;20130;-77
2022/05/05 13:16:19;;;;;;;7.88;6.13;;;19.40;57.90;;;;;;5084521;27;20495;-77
2022/05/05 13:18:45;;;;;;;8.80;6.75;;;19.50;58.40;;;;;;5118042;27;20082;-77
2022/05/05 13:21:11;;;;;;;10.55;5.93;;;19.50;58.40;;;;;;5118560;27;20479;-76
2022/05/05 13:23:36;;;;;;;7.80;6.53;;;19.60;58.60;;;;;;5118663;27;20487;-76
2022/05/05 13:26:03;;;;;;;7.68;6.25;;;19.70;57.90;;;;;;5117818;27;20055;-76
2022/05/05 13:28:29;;;;;;;8.25;6.88;;;19.70;57.80;;;;;;5118547;27;20390;-76
2022/05/05 13:30:55;;;;;;;9.13;6.97;;;19.70;57.90;;;;;;5117854;27;20427;-76
2022/05/05 13:33:21;;;;;;;7.10;5.93;;;19.60;56.90;;;;;;5136643;27;20058;-76
2022/05/05 13:35:46;;;;;;;7.25;6.28;;;19.60;57.50;;;;;;5136148;27;20055;-76
2022/05/05 13:38:12;;;;;;;9.25;7.00;;;19.60;58.00;;;;;;5118118;27;20040;-76
2022/05/05 13:40:38;;;;;;;9.82;6.35;;;19.60;58.40;;;;;;5117307;27;20050;-76
2022/05/05 13:43:03;;;;;;;7.10;5.72;;;19.60;57.80;;;;;;5135999;27;20083;-76
2022/05/05 13:45:29;;;;;;;8.25;6.47;;;19.60;58.00;;;;;;5118273;27;20130;-76